Rutledge, Alabama
Current Conditions -  °F | °C
As of 4:53 AM on Friday 19 Dec 2014 (Local Time) from KTOI Reporting Station
Clear Clear  
Wind Chill: 42°   Ceiling: Unl
Heat Index: 42°   Visibility: 10mi
Dew Point: 37°   Wind: 3mph
Humidity: 82%   Direction: 360°N
Pressure: 30.16"   Gusts: NA
Location:  31.73°N, 86.31°W
Report Text: KTOI 191053Z AUTO 36003KT 10SM CLR 06/03 A3016 RMK AO2 SLP213 T00560028
Loading
Personal Weather Stations






























Interactive Weather Map New forecast layout! Learn more

10-Day Weather Forecast

Advertisements
Track Severe Weather on mobile